createdAt,value
2017-12-20T00:00:20.487Z,28.60
2017-12-20T00:02:48.849Z,27.97
2017-12-20T00:05:17.217Z,29.90
2017-12-20T00:07:45.548Z,30.40
2017-12-20T00:10:14.207Z,27.43
2017-12-20T00:12:42.571Z,28.97
2017-12-20T00:15:10.919Z,29.73
2017-12-20T00:17:39.267Z,28.50
2017-12-20T00:20:07.603Z,27.47
2017-12-20T00:22:35.962Z,27.53
2017-12-20T00:25:04.333Z,26.83
2017-12-20T00:27:33.440Z,27.00
2017-12-20T00:30:01.814Z,26.30
2017-12-20T00:32:30.769Z,29.07
2017-12-20T00:34:59.102Z,29.13
2017-12-20T00:37:28.967Z,27.67
2017-12-20T00:39:57.338Z,29.57
2017-12-20T00:42:26.441Z,27.40
2017-12-20T00:44:54.824Z,28.10
2017-12-20T00:47:23.189Z,24.67
2017-12-20T00:49:52.319Z,29.13
2017-12-20T00:52:20.667Z,25.60
2017-12-20T00:54:50.234Z,26.13
2017-12-20T00:57:18.597Z,29.00
2017-12-20T00:59:46.945Z,26.90
2017-12-20T01:02:15.373Z,27.47
2017-12-20T01:04:43.747Z,26.53
2017-12-20T01:07:12.057Z,26.70
2017-12-20T01:09:41.234Z,26.00
2017-12-20T01:12:09.561Z,25.77
2017-12-20T01:14:37.952Z,25.60
2017-12-20T01:17:06.492Z,24.30
2017-12-20T01:19:35.619Z,26.47
2017-12-20T01:22:04.008Z,27.33
2017-12-20T01:24:32.376Z,28.70
2017-12-20T01:27:00.768Z,26.27
2017-12-20T01:29:29.145Z,26.20
2017-12-20T01:31:57.522Z,27.30
2017-12-20T01:34:25.867Z,26.40
2017-12-20T01:36:54.254Z,26.90
2017-12-20T01:39:24.046Z,28.00
2017-12-20T01:41:52.383Z,26.13
2017-12-20T01:44:20.752Z,26.73
2017-12-20T01:46:49.328Z,24.83
2017-12-20T01:49:17.683Z,24.25
2017-12-20T01:51:46.777Z,28.90
2017-12-20T01:54:15.900Z,27.13
2017-12-20T01:56:44.252Z,28.17
2017-12-20T01:59:13.339Z,26.77
2017-12-20T02:02:02.254Z,25.63
2017-12-20T02:04:30.609Z,25.90
2017-12-20T02:06:58.913Z,25.50
2017-12-20T02:09:27.252Z,24.67
2017-12-20T02:11:56.332Z,25.20
2017-12-20T02:14:24.653Z,24.80
2017-12-20T02:16:53.048Z,24.70
2017-12-20T02:19:21.359Z,25.20
2017-12-20T02:21:49.742Z,24.63
2017-12-20T02:24:18.419Z,24.67
2017-12-20T02:26:46.762Z,25.20
2017-12-20T02:29:15.082Z,23.20
2017-12-20T02:31:43.467Z,23.93
2017-12-20T02:34:11.821Z,24.10
2017-12-20T02:36:40.922Z,23.87
2017-12-20T02:39:09.300Z,24.57
2017-12-20T02:41:37.670Z,22.53
2017-12-20T02:44:06.018Z,22.43
2017-12-20T02:46:34.556Z,22.40
2017-12-20T02:49:02.907Z,21.50
2017-12-20T02:51:31.221Z,19.60
2017-12-20T02:54:00.048Z,22.20
2017-12-20T02:56:28.367Z,21.00
2017-12-20T02:58:57.466Z,20.03
2017-12-20T03:01:25.824Z,21.70
2017-12-20T03:03:54.163Z,22.80
2017-12-20T03:06:22.519Z,22.53
2017-12-20T03:08:51.137Z,22.20
2017-12-20T03:11:19.476Z,24.63
2017-12-20T03:13:47.822Z,23.43
2017-12-20T03:16:16.242Z,22.93
2017-12-20T03:18:44.610Z,25.10
2017-12-20T03:21:13.029Z,23.53
2017-12-20T03:23:41.405Z,22.73
2017-12-20T03:26:15.581Z,22.10
2017-12-20T03:28:44.354Z,22.07
2017-12-20T03:31:12.753Z,23.30
2017-12-20T03:33:41.097Z,24.43
2017-12-20T03:36:15.216Z,24.00
2017-12-20T03:38:44.141Z,23.73
2017-12-20T03:41:12.597Z,21.10
2017-12-20T03:43:40.995Z,19.97
2017-12-20T03:46:10.170Z,19.17
2017-12-20T03:48:38.560Z,19.00
2017-12-20T03:51:07.257Z,19.27
2017-12-20T03:53:36.380Z,19.33
2017-12-20T03:56:05.541Z,18.20
2017-12-20T03:58:33.987Z,19.87
2017-12-20T04:01:11.286Z,19.92
2017-12-20T04:03:39.657Z,19.50
2017-12-20T04:06:08.001Z,18.40
2017-12-20T04:08:37.092Z,18.65
2017-12-20T04:11:05.652Z,18.60
2017-12-20T04:13:34.016Z,18.23
2017-12-20T04:16:02.388Z,18.90
2017-12-20T04:18:30.751Z,18.97
2017-12-20T04:20:59.087Z,19.27
2017-12-20T04:23:27.419Z,19.13
2017-12-20T04:25:55.816Z,19.63
2017-12-20T04:28:24.170Z,19.00
2017-12-20T04:30:52.546Z,18.27
2017-12-20T04:33:21.216Z,18.00
2017-12-20T04:35:49.637Z,18.70
2017-12-20T04:38:18.063Z,20.57
2017-12-20T04:40:47.249Z,18.83
2017-12-20T04:43:15.588Z,18.00
2017-12-20T04:45:44.040Z,16.73
2017-12-20T04:48:12.484Z,17.23
2017-12-20T04:50:40.838Z,17.90
2017-12-20T04:53:09.178Z,17.90
2017-12-20T04:55:37.612Z,18.70
2017-12-20T04:58:05.949Z,20.00
2017-12-20T05:00:34.307Z,18.50
2017-12-20T05:03:02.711Z,17.30
2017-12-20T05:05:31.112Z,17.50
2017-12-20T05:07:59.495Z,17.83
2017-12-20T05:10:27.902Z,19.33
2017-12-20T05:12:56.217Z,19.03
2017-12-20T05:15:25.318Z,18.07
2017-12-20T05:17:54.046Z,18.70
2017-12-20T05:20:22.390Z,18.10
2017-12-20T05:22:50.739Z,19.70
2017-12-20T05:25:19.863Z,18.07
2017-12-20T05:27:48.378Z,18.20
2017-12-20T05:30:16.685Z,18.90
2017-12-20T05:32:45.028Z,19.77
2017-12-20T05:35:13.364Z,17.27
2017-12-20T05:37:41.716Z,20.00
2017-12-20T05:40:10.242Z,19.12
2017-12-20T05:42:38.571Z,18.40
2017-12-20T05:45:06.916Z,18.50
2017-12-20T05:47:35.290Z,19.27
2017-12-20T05:50:03.638Z,19.20
2017-12-20T05:52:31.996Z,18.80
2017-12-20T05:55:00.359Z,18.07
2017-12-20T05:57:28.714Z,18.97
2017-12-20T05:59:57.048Z,18.13
2017-12-20T06:02:26.776Z,21.57
2017-12-20T06:07:29.495Z,18.70
2017-12-20T06:09:57.842Z,16.20
2017-12-20T06:12:26.215Z,19.20
2017-12-20T06:14:54.634Z,17.77
2017-12-20T06:17:22.948Z,17.37
2017-12-20T06:19:51.309Z,16.60
2017-12-20T06:22:19.718Z,18.07
2017-12-20T06:25:01.552Z,17.03
2017-12-20T06:27:29.966Z,16.17
2017-12-20T06:29:58.339Z,16.00
2017-12-20T06:32:26.724Z,15.97
2017-12-20T06:34:55.123Z,17.40
2017-12-20T06:37:23.533Z,15.93
2017-12-20T06:40:03.793Z,16.40
2017-12-20T06:42:32.900Z,15.53
2017-12-20T06:45:01.322Z,15.83
2017-12-20T06:47:29.688Z,16.83
2017-12-20T06:49:58.027Z,14.97
2017-12-20T06:52:27.207Z,14.80
2017-12-20T06:54:56.357Z,15.75
2017-12-20T06:57:24.714Z,13.93
2017-12-20T06:59:53.087Z,14.07
2017-12-20T07:02:21.813Z,15.27
2017-12-20T07:04:50.169Z,16.63
2017-12-20T07:07:18.560Z,15.27
2017-12-20T07:09:46.966Z,15.90
2017-12-20T07:12:15.353Z,15.70
2017-12-20T07:14:43.701Z,14.40
2017-12-20T07:17:12.517Z,15.97
2017-12-20T07:19:40.951Z,16.40
2017-12-20T07:22:09.316Z,15.50
2017-12-20T07:24:37.916Z,16.40
2017-12-20T07:27:06.315Z,15.50
2017-12-20T07:29:34.642Z,14.10
2017-12-20T07:32:03.017Z,14.33
2017-12-20T07:34:31.388Z,14.50
2017-12-20T07:36:59.757Z,14.17
2017-12-20T07:39:28.125Z,14.60
2017-12-20T07:41:56.468Z,13.00
2017-12-20T07:44:24.859Z,14.43
2017-12-20T07:46:53.499Z,12.90
2017-12-20T07:49:21.870Z,12.10
2017-12-20T07:51:50.263Z,14.33
2017-12-20T07:54:18.630Z,13.30
2017-12-20T07:56:46.966Z,13.57
2017-12-20T07:59:15.289Z,14.20
2017-12-20T08:01:43.631Z,12.80
2017-12-20T08:04:12.031Z,13.33
2017-12-20T08:06:40.452Z,13.80
2017-12-20T08:09:09.528Z,14.17
2017-12-20T08:11:37.957Z,14.25
2017-12-20T08:14:06.342Z,16.53
2017-12-20T08:16:34.721Z,14.67
2017-12-20T08:19:03.106Z,14.33
2017-12-20T08:21:31.442Z,14.20
2017-12-20T08:24:00.623Z,12.67
2017-12-20T08:26:34.617Z,13.50
2017-12-20T08:32:00.528Z,13.27
2017-12-20T08:34:28.870Z,13.43
2017-12-20T08:36:57.221Z,12.40
2017-12-20T08:39:26.065Z,12.60
2017-12-20T08:41:54.434Z,11.10
2017-12-20T08:44:22.843Z,10.90
2017-12-20T08:46:51.674Z,11.80
2017-12-20T08:49:20.136Z,10.73
2017-12-20T08:51:48.473Z,10.93
2017-12-20T08:54:17.463Z,10.90
2017-12-20T08:56:45.772Z,11.33
2017-12-20T08:59:14.084Z,12.23
2017-12-20T09:01:42.534Z,11.23
2017-12-20T09:04:10.922Z,11.13
2017-12-20T09:06:39.288Z,12.07
2017-12-20T09:09:07.672Z,11.30
2017-12-20T09:11:36.030Z,11.57
2017-12-20T09:14:04.352Z,11.70
2017-12-20T09:16:33.045Z,12.13
2017-12-20T09:19:01.438Z,12.07
2017-12-20T09:21:30.587Z,11.80
2017-12-20T09:23:58.974Z,12.20
2017-12-20T09:26:27.314Z,11.97
2017-12-20T09:28:56.049Z,11.73
2017-12-20T09:31:24.471Z,12.47
2017-12-20T09:33:53.605Z,12.13
2017-12-20T09:36:21.979Z,11.87
2017-12-20T09:38:50.567Z,12.30
2017-12-20T09:41:18.887Z,12.20
2017-12-20T09:43:47.208Z,13.70
2017-12-20T09:46:15.563Z,12.10
2017-12-20T09:48:43.935Z,11.80
2017-12-20T09:51:13.027Z,11.67
2017-12-20T09:53:41.376Z,12.20
2017-12-20T09:56:37.846Z,11.57
2017-12-20T09:59:06.697Z,11.20
2017-12-20T10:01:35.085Z,12.13
2017-12-20T10:04:03.462Z,11.57
2017-12-20T10:06:31.854Z,12.80
2017-12-20T10:09:00.237Z,11.67
2017-12-20T10:11:28.667Z,11.70
2017-12-20T10:13:57.012Z,11.80
2017-12-20T10:16:26.133Z,11.90
2017-12-20T10:18:54.481Z,13.17
2017-12-20T10:21:23.916Z,11.60
2017-12-20T10:23:52.273Z,11.23
2017-12-20T10:26:21.391Z,12.43
2017-12-20T10:28:49.771Z,11.20
2017-12-20T10:31:18.129Z,11.83
2017-12-20T10:33:47.238Z,11.23
2017-12-20T10:36:16.380Z,10.53
2017-12-20T10:38:44.756Z,10.80
2017-12-20T10:41:13.122Z,9.67
2017-12-20T10:43:41.580Z,11.17
2017-12-20T10:46:09.914Z,9.87
2017-12-20T10:48:38.284Z,9.20
2017-12-20T10:51:06.668Z,8.10
2017-12-20T10:53:35.030Z,9.13
2017-12-20T10:56:03.391Z,9.07
2017-12-20T10:58:31.782Z,9.07
2017-12-20T11:01:00.174Z,9.13
2017-12-20T11:03:36.606Z,9.47
2017-12-20T11:06:04.914Z,8.00
2017-12-20T11:08:33.238Z,8.40
2017-12-20T11:11:01.614Z,8.60
2017-12-20T11:13:29.954Z,10.43
2017-12-20T11:15:58.342Z,8.60
2017-12-20T11:18:26.743Z,11.93
2017-12-20T11:20:55.132Z,7.53
2017-12-20T11:23:24.205Z,8.77
2017-12-20T11:25:53.019Z,8.10
2017-12-20T11:28:21.601Z,7.87
2017-12-20T11:30:50.719Z,7.97
2017-12-20T11:33:19.896Z,7.67
2017-12-20T11:35:49.044Z,6.80
2017-12-20T11:38:17.441Z,7.10
2017-12-20T11:40:45.852Z,6.90
2017-12-20T11:43:14.963Z,6.67
2017-12-20T11:45:44.069Z,6.47
2017-12-20T11:48:12.545Z,7.27
2017-12-20T11:50:41.640Z,6.20
2017-12-20T11:53:10.729Z,6.13
2017-12-20T11:55:39.865Z,6.50
2017-12-20T11:58:08.211Z,7.13
2017-12-20T12:00:36.544Z,7.27
2017-12-20T12:03:04.896Z,6.90
2017-12-20T12:05:33.288Z,7.30
2017-12-20T12:08:01.657Z,8.13
2017-12-20T12:10:30.606Z,7.10
2017-12-20T12:12:59.748Z,6.33
2017-12-20T12:15:28.105Z,6.47
2017-12-20T12:17:56.466Z,6.70
2017-12-20T12:20:24.872Z,7.13
2017-12-20T12:22:53.234Z,7.20
2017-12-20T12:25:22.371Z,5.83
2017-12-20T12:27:50.714Z,6.73
2017-12-20T12:30:19.111Z,7.63
2017-12-20T12:32:47.786Z,7.60
2017-12-20T12:35:16.125Z,7.77
2017-12-20T12:37:44.494Z,19.77
2017-12-20T12:40:12.866Z,7.43
2017-12-20T12:42:41.964Z,7.67
2017-12-20T12:45:11.056Z,7.97
2017-12-20T12:47:39.426Z,8.87
2017-12-20T12:50:08.554Z,8.93
2017-12-20T12:52:36.900Z,8.80
2017-12-20T12:55:06.394Z,8.87
2017-12-20T12:57:34.783Z,8.30
2017-12-20T13:00:03.114Z,9.00
2017-12-20T13:02:31.514Z,8.77
2017-12-20T13:04:59.924Z,9.97
2017-12-20T13:07:28.300Z,9.10
2017-12-20T13:09:56.642Z,8.97
2017-12-20T13:12:25.031Z,8.57
2017-12-20T13:14:53.382Z,7.97
2017-12-20T13:17:21.823Z,9.40
2017-12-20T13:19:50.191Z,9.87
2017-12-20T13:22:18.507Z,10.90
2017-12-20T13:24:47.707Z,10.80
2017-12-20T13:27:16.044Z,9.30
2017-12-20T13:29:44.448Z,10.30
2017-12-20T13:32:12.842Z,9.83
2017-12-20T13:34:41.223Z,9.47
2017-12-20T13:37:09.614Z,9.50
2017-12-20T13:39:38.092Z,9.10
2017-12-20T13:42:06.482Z,9.90
2017-12-20T13:44:34.823Z,9.67
2017-12-20T13:47:04.026Z,9.43
2017-12-20T13:49:32.448Z,11.67
2017-12-20T13:52:00.826Z,12.23
2017-12-20T13:54:29.223Z,10.30
2017-12-20T13:56:57.550Z,10.80
2017-12-20T13:59:25.909Z,12.27
2017-12-20T14:01:54.669Z,11.57
2017-12-20T14:04:23.026Z,10.80
2017-12-20T14:06:52.122Z,11.67
2017-12-20T14:09:20.494Z,12.53
2017-12-20T14:12:09.385Z,12.10
2017-12-20T14:14:37.737Z,12.93
2017-12-20T14:17:06.891Z,12.80
2017-12-20T14:19:35.216Z,12.93
2017-12-20T14:22:03.683Z,12.47
2017-12-20T14:24:32.048Z,12.50
2017-12-20T14:27:01.190Z,13.13
2017-12-20T14:29:29.605Z,14.77
2017-12-20T14:31:57.941Z,14.23
2017-12-20T14:34:26.306Z,15.47
2017-12-20T14:36:54.675Z,14.53
2017-12-20T14:39:23.031Z,13.83
2017-12-20T14:41:51.420Z,13.27
2017-12-20T14:44:19.902Z,13.33
2017-12-20T14:46:48.296Z,14.30
2017-12-20T14:49:16.647Z,13.90
2017-12-20T14:51:45.023Z,14.70
2017-12-20T14:54:13.356Z,13.97
2017-12-20T14:56:41.701Z,13.60
2017-12-20T14:59:10.079Z,13.97
2017-12-20T15:01:38.433Z,14.33
2017-12-20T15:04:06.755Z,13.50
2017-12-20T15:06:46.809Z,13.93
2017-12-20T15:09:15.939Z,13.80
2017-12-20T15:11:44.308Z,14.77
2017-12-20T15:14:12.706Z,13.40
2017-12-20T15:16:41.083Z,14.70
2017-12-20T15:19:09.456Z,14.20
2017-12-20T15:21:37.841Z,13.30
2017-12-20T15:24:06.349Z,13.40
2017-12-20T15:26:34.683Z,12.97
2017-12-20T15:29:03.364Z,13.90
2017-12-20T15:31:31.719Z,15.03
2017-12-20T15:34:00.057Z,14.60
2017-12-20T15:36:28.430Z,12.83
2017-12-20T15:38:56.774Z,13.03
2017-12-20T15:41:25.894Z,13.70
2017-12-20T15:43:54.255Z,12.50
2017-12-20T15:46:22.636Z,12.63
2017-12-20T15:48:51.721Z,12.17
2017-12-20T15:51:21.137Z,13.40
2017-12-20T15:53:49.464Z,13.30
2017-12-20T15:56:22.654Z,13.80
2017-12-20T15:58:51.448Z,13.73
2017-12-20T16:01:19.802Z,13.40
2017-12-20T16:03:48.140Z,14.70
2017-12-20T16:06:17.329Z,14.17
2017-12-20T16:08:46.454Z,13.17
2017-12-20T16:11:14.833Z,12.53
2017-12-20T16:13:43.444Z,13.10
2017-12-20T16:16:11.786Z,12.20
2017-12-20T16:18:40.863Z,13.50
2017-12-20T16:21:09.271Z,12.87
2017-12-20T16:23:37.599Z,13.60
2017-12-20T16:26:05.953Z,14.27
2017-12-20T16:28:34.387Z,13.03
2017-12-20T16:31:03.481Z,13.70
2017-12-20T16:33:31.849Z,14.57
2017-12-20T16:36:00.402Z,11.13
2017-12-20T16:38:28.781Z,13.23
2017-12-20T16:40:57.113Z,13.10
2017-12-20T16:43:25.472Z,13.10
2017-12-20T16:45:53.824Z,11.87
2017-12-20T16:48:22.190Z,11.70
2017-12-20T16:50:50.565Z,12.70
2017-12-20T16:53:36.620Z,12.63
2017-12-20T16:56:05.944Z,12.90
2017-12-20T16:58:34.283Z,12.07
2017-12-20T17:01:02.617Z,13.30
2017-12-20T17:03:31.023Z,11.70
2017-12-20T17:05:59.391Z,10.73
2017-12-20T17:08:28.525Z,11.90
2017-12-20T17:10:56.887Z,10.83
2017-12-20T17:13:25.240Z,10.17
2017-12-20T17:15:53.611Z,11.00
2017-12-20T17:18:22.361Z,10.53
2017-12-20T17:20:51.457Z,11.23
2017-12-20T17:23:19.831Z,12.33
2017-12-20T17:25:48.998Z,12.43
2017-12-20T17:28:17.350Z,11.80
2017-12-20T17:30:45.689Z,11.77
2017-12-20T17:33:14.839Z,11.33
2017-12-20T17:35:43.169Z,10.93
2017-12-20T17:38:11.497Z,12.27
2017-12-20T17:40:40.009Z,12.37
2017-12-20T17:43:08.365Z,12.70
2017-12-20T17:45:36.735Z,12.80
2017-12-20T17:48:05.136Z,13.37
2017-12-20T17:50:33.516Z,12.57
2017-12-20T17:53:01.890Z,11.63
2017-12-20T17:55:30.351Z,13.90
2017-12-20T17:57:58.683Z,11.40
2017-12-20T18:00:27.078Z,12.93
2017-12-20T18:02:55.817Z,13.20
2017-12-20T18:05:25.723Z,13.33
2017-12-20T18:07:54.238Z,14.03
2017-12-20T18:10:23.498Z,12.97
2017-12-20T18:12:51.902Z,14.23
2017-12-20T18:15:20.253Z,14.87
2017-12-20T18:17:48.659Z,14.00
2017-12-20T18:20:17.009Z,15.57
2017-12-20T18:22:45.377Z,15.87
2017-12-20T18:25:13.966Z,17.27
2017-12-20T18:27:42.341Z,15.00
2017-12-20T18:30:10.702Z,17.40
2017-12-20T18:32:39.074Z,17.23
2017-12-20T18:35:07.412Z,15.50
2017-12-20T18:37:35.770Z,16.60
2017-12-20T18:40:06.133Z,16.57
2017-12-20T18:42:34.502Z,17.10
2017-12-20T18:45:02.933Z,16.27
2017-12-20T18:47:32.756Z,15.90
2017-12-20T18:50:01.102Z,19.10
2017-12-20T18:52:29.481Z,19.10
2017-12-20T18:54:58.627Z,17.80
2017-12-20T18:57:26.940Z,18.80
2017-12-20T18:59:55.273Z,18.30
2017-12-20T19:02:23.655Z,18.13
2017-12-20T19:04:52.037Z,18.37
2017-12-20T19:07:20.389Z,17.73
2017-12-20T19:09:49.170Z,18.27
2017-12-20T19:12:17.553Z,17.67
2017-12-20T19:14:45.934Z,16.67
2017-12-20T19:17:14.347Z,15.67
2017-12-20T19:19:42.745Z,15.77
2017-12-20T19:22:17.034Z,15.80
2017-12-20T19:24:45.427Z,15.70
2017-12-20T19:27:14.550Z,15.93
2017-12-20T19:29:43.274Z,15.53
2017-12-20T19:32:12.399Z,15.83
2017-12-20T19:34:40.754Z,13.53
2017-12-20T19:37:09.876Z,16.17
2017-12-20T19:39:38.258Z,16.37
2017-12-20T19:42:06.600Z,17.00
2017-12-20T19:44:35.765Z,16.70
2017-12-20T19:47:04.107Z,17.37
2017-12-20T19:49:32.491Z,16.07
2017-12-20T19:52:01.206Z,16.63
2017-12-20T19:54:29.603Z,16.90
2017-12-20T19:56:57.956Z,16.60
2017-12-20T19:59:26.332Z,15.60
2017-12-20T20:01:54.730Z,16.00
2017-12-20T20:04:23.093Z,16.57
2017-12-20T20:06:51.463Z,16.20
2017-12-20T20:09:20.593Z,16.23
2017-12-20T20:11:49.021Z,16.70
2017-12-20T20:14:17.640Z,17.90
2017-12-20T20:16:45.999Z,16.43
2017-12-20T20:19:14.993Z,19.47
2017-12-20T20:21:44.230Z,20.47
2017-12-20T20:24:12.716Z,21.17
2017-12-20T20:26:41.125Z,22.20
2017-12-20T20:29:09.567Z,22.40
2017-12-20T20:31:37.984Z,22.63
2017-12-20T20:34:06.366Z,21.37
2017-12-20T20:36:34.814Z,22.53
2017-12-20T20:39:03.297Z,22.97
2017-12-20T20:41:31.678Z,23.60
2017-12-20T20:44:00.103Z,24.40
2017-12-20T20:46:28.429Z,24.37
2017-12-20T20:48:56.839Z,24.53
2017-12-20T20:51:26.011Z,24.70
2017-12-20T20:53:54.737Z,24.77
2017-12-20T20:56:23.070Z,22.97
2017-12-20T20:58:51.713Z,25.20
2017-12-20T21:01:20.054Z,23.93
2017-12-20T21:03:48.463Z,24.93
2017-12-20T21:06:16.879Z,25.17
2017-12-20T21:08:45.989Z,24.67
2017-12-20T21:11:14.390Z,22.63
2017-12-20T21:13:42.766Z,24.47
2017-12-20T21:16:11.746Z,23.17
2017-12-20T21:18:40.205Z,22.17
2017-12-20T21:21:08.681Z,23.57
2017-12-20T21:23:37.825Z,21.10
2017-12-20T21:26:06.978Z,21.30
2017-12-20T21:28:35.375Z,21.70
2017-12-20T21:31:03.702Z,21.50
2017-12-20T21:33:32.013Z,21.10
2017-12-20T21:36:00.384Z,23.17
2017-12-20T21:38:28.790Z,22.23
2017-12-20T21:40:57.170Z,21.00
2017-12-20T21:43:25.622Z,20.03
2017-12-20T21:45:53.966Z,19.67
2017-12-20T21:48:23.203Z,20.70
2017-12-20T21:50:51.608Z,20.67
2017-12-20T21:53:19.998Z,20.43
2017-12-20T21:55:48.324Z,20.60
2017-12-20T21:58:16.715Z,19.73
2017-12-20T22:00:45.048Z,21.00
2017-12-20T22:03:13.507Z,18.00
2017-12-20T22:05:42.195Z,20.20
2017-12-20T22:08:10.574Z,19.60
2017-12-20T22:10:38.914Z,18.03
2017-12-20T22:13:08.353Z,18.67
2017-12-20T22:15:36.707Z,18.33
2017-12-20T22:18:05.080Z,18.80
2017-12-20T22:20:33.485Z,17.93
2017-12-20T22:23:01.841Z,19.87
2017-12-20T22:25:30.219Z,18.40
2017-12-20T22:27:58.894Z,18.67
2017-12-20T22:30:27.246Z,17.70
2017-12-20T22:32:55.584Z,19.50
2017-12-20T22:35:24.742Z,18.90
2017-12-20T22:37:53.284Z,18.40
2017-12-20T22:40:21.603Z,18.40
2017-12-20T22:42:50.045Z,17.27
2017-12-20T22:45:18.397Z,18.40
2017-12-20T22:47:46.747Z,18.53
2017-12-20T22:50:15.386Z,18.30
2017-12-20T22:52:43.742Z,19.43
2017-12-20T22:55:12.129Z,18.50
2017-12-20T22:57:40.557Z,16.80
2017-12-20T23:00:09.688Z,16.50
2017-12-20T23:02:38.026Z,16.37
2017-12-20T23:05:07.221Z,17.20
2017-12-20T23:07:35.626Z,17.03
2017-12-20T23:10:03.957Z,17.50
2017-12-20T23:12:33.716Z,17.07
2017-12-20T23:15:02.071Z,16.50
2017-12-20T23:17:31.184Z,17.70
2017-12-20T23:20:00.314Z,17.83
2017-12-20T23:22:28.674Z,17.20
2017-12-20T23:24:57.033Z,17.40
2017-12-20T23:27:26.133Z,17.30
2017-12-20T23:29:55.240Z,15.47
2017-12-20T23:32:23.611Z,17.23
2017-12-20T23:34:55.824Z,17.43
2017-12-20T23:37:24.183Z,17.73
2017-12-20T23:39:52.584Z,15.77
2017-12-20T23:42:20.954Z,16.10
2017-12-20T23:44:49.294Z,16.80
2017-12-20T23:47:17.663Z,16.33
2017-12-20T23:49:47.630Z,15.80
2017-12-20T23:52:15.942Z,16.80
2017-12-20T23:54:44.285Z,14.97
2017-12-20T23:57:13.008Z,15.57
2017-12-20T23:59:41.351Z,15.03
